KEND/END METAR and TAF weather

Enter ICAO airport designator
Station Type Date Time Source
KEND METAR 2019/08/19 00:56 UTC NOAA

KEND 190056Z AUTO 11011KT 10SM BKN065 33/24 A2982 RMK AO2 SLP083 T03300244 $


Station Type Date Time Source
KEND Decoded METAR 2019/08/19 00:56 UTC NOAA

Station name not available
Aug 18, 2019 - 08:56 PM EDT / 2019.08.19 0056 UTC
Wind: from the ESE (110 degrees) at 13 MPH (11 KT):0
Visibility: 10 mile(s):0
Sky conditions: mostly cloudy
Temperature: 91.4 F (33.0 C)
Heat index: 103.1 F (39.5 C):1
Dew Point: 75.9 F (24.4 C)
Relative Humidity: 60%
Pressure (altimeter): 29.82 in. Hg (1009 hPa)
ob: KEND 190056Z AUTO 11011KT 10SM BKN065 33/24 A2982 RMK AO2 SLP083 T03300244
cycle: 1

Station Type Date Time Source
KEND TAF 2019/08/19 00:29 UTC NOAA

TAF
AMD KEND 190000Z 1900/1924 17010G20KT 9999 FEW030 520053 QNH2975INS
BECMG 1900/1901 14012KT 9999 SKC QNH2970INS
BECMG 1904/1905 VRB06KT 9999 SKC QNH2980INS
BECMG 1914/1915 17012KT 9999 SKC QNH2981INS TX39/1900Z TN24/1912Z LAST NO
AMDS AFT 1900 NEXT 1910

Example: see airport list